sensor_id;sensor_type;location;lat;lon;timestamp;temperature;humidity
56512;DHT22;42408;53.238;5.686;2023-05-10T00:01:05;13.00;99.90
56512;DHT22;42408;53.238;5.686;2023-05-10T00:03:30;13.00;99.90
56512;DHT22;42408;53.238;5.686;2023-05-10T00:05:56;13.00;99.90
56512;DHT22;42408;53.238;5.686;2023-05-10T00:08:22;13.00;99.90
56512;DHT22;42408;53.238;5.686;2023-05-10T00:10:48;13.00;99.90
56512;DHT22;42408;53.238;5.686;2023-05-10T00:13:13;12.90;99.90
56512;DHT22;42408;53.238;5.686;2023-05-10T00:15:39;12.90;99.90
56512;DHT22;42408;53.238;5.686;2023-05-10T00:18:05;12.80;99.90
56512;DHT22;42408;53.238;5.686;2023-05-10T00:20:30;12.80;99.90
56512;DHT22;42408;53.238;5.686;2023-05-10T00:22:56;12.80;99.90
56512;DHT22;42408;53.238;5.686;2023-05-10T00:25:21;12.80;99.90
56512;DHT22;42408;53.238;5.686;2023-05-10T00:27:47;12.80;99.90
56512;DHT22;42408;53.238;5.686;2023-05-10T00:30:13;12.80;99.90
56512;DHT22;42408;53.238;5.686;2023-05-10T00:32:39;12.80;99.90
56512;DHT22;42408;53.238;5.686;2023-05-10T00:35:05;12.70;99.90
56512;DHT22;42408;53.238;5.686;2023-05-10T00:37:30;12.80;99.90
56512;DHT22;42408;53.238;5.686;2023-05-10T00:39:56;12.80;99.90
56512;DHT22;42408;53.238;5.686;2023-05-10T00:42:22;12.70;99.90
56512;DHT22;42408;53.238;5.686;2023-05-10T00:44:48;12.80;99.90
56512;DHT22;42408;53.238;5.686;2023-05-10T00:47:13;12.70;99.90
56512;DHT22;42408;53.238;5.686;2023-05-10T00:49:39;12.80;99.90
56512;DHT22;42408;53.238;5.686;2023-05-10T00:52:06;12.80;99.90
56512;DHT22;42408;53.238;5.686;2023-05-10T00:54:31;12.70;99.90
56512;DHT22;42408;53.238;5.686;2023-05-10T00:56:57;12.70;99.90
56512;DHT22;42408;53.238;5.686;2023-05-10T00:59:24;12.70;99.90
56512;DHT22;42408;53.238;5.686;2023-05-10T01:01:50;12.70;99.90
56512;DHT22;42408;53.238;5.686;2023-05-10T01:04:17;12.70;99.90
56512;DHT22;42408;53.238;5.686;2023-05-10T01:06:43;12.70;99.90
56512;DHT22;42408;53.238;5.686;2023-05-10T01:09:09;12.70;99.90
56512;DHT22;42408;53.238;5.686;2023-05-10T01:11:37;12.70;99.90
56512;DHT22;42408;53.238;5.686;2023-05-10T01:14:03;12.70;99.90
56512;DHT22;42408;53.238;5.686;2023-05-10T01:16:32;12.70;99.90
56512;DHT22;42408;53.238;5.686;2023-05-10T01:18:58;12.70;99.90
56512;DHT22;42408;53.238;5.686;2023-05-10T01:21:46;12.60;99.90
56512;DHT22;42408;53.238;5.686;2023-05-10T01:33:15;12.70;99.90
56512;DHT22;42408;53.238;5.686;2023-05-10T01:35:51;12.70;99.90
56512;DHT22;42408;53.238;5.686;2023-05-10T01:44:04;12.70;99.90
56512;DHT22;42408;53.238;5.686;2023-05-10T01:46:37;12.70;99.90
56512;DHT22;42408;53.238;5.686;2023-05-10T01:49:11;12.70;99.90
56512;DHT22;42408;53.238;5.686;2023-05-10T01:51:45;12.70;99.90
56512;DHT22;42408;53.238;5.686;2023-05-10T01:54:13;12.90;99.90
56512;DHT22;42408;53.238;5.686;2023-05-10T01:56:40;12.70;99.90
56512;DHT22;42408;53.238;5.686;2023-05-10T01:59:12;12.70;99.90
56512;DHT22;42408;53.238;5.686;2023-05-10T02:01:40;12.70;99.90
56512;DHT22;42408;53.238;5.686;2023-05-10T02:04:08;12.80;99.90
56512;DHT22;42408;53.238;5.686;2023-05-10T02:06:36;12.70;99.90
56512;DHT22;42408;53.238;5.686;2023-05-10T02:09:03;12.70;99.90
56512;DHT22;42408;53.238;5.686;2023-05-10T02:11:29;12.70;99.90
56512;DHT22;42408;53.238;5.686;2023-05-10T02:13:57;12.70;99.90
56512;DHT22;42408;53.238;5.686;2023-05-10T02:16:25;12.70;99.90
56512;DHT22;42408;53.238;5.686;2023-05-10T02:18:52;12.70;99.90
56512;DHT22;42408;53.238;5.686;2023-05-10T02:21:20;12.80;99.90
56512;DHT22;42408;53.238;5.686;2023-05-10T02:23:48;12.70;99.90
56512;DHT22;42408;53.238;5.686;2023-05-10T02:26:15;12.70;99.90
56512;DHT22;42408;53.238;5.686;2023-05-10T02:28:42;12.70;99.90
56512;DHT22;42408;53.238;5.686;2023-05-10T02:31:09;12.70;99.90
56512;DHT22;42408;53.238;5.686;2023-05-10T02:33:38;12.70;99.90
56512;DHT22;42408;53.238;5.686;2023-05-10T02:36:07;12.70;99.90
56512;DHT22;42408;53.238;5.686;2023-05-10T02:38:34;12.70;99.90
56512;DHT22;42408;53.238;5.686;2023-05-10T02:41:02;12.70;99.90
56512;DHT22;42408;53.238;5.686;2023-05-10T02:43:30;12.70;99.90
56512;DHT22;42408;53.238;5.686;2023-05-10T02:45:56;12.60;99.90
56512;DHT22;42408;53.238;5.686;2023-05-10T02:48:22;12.60;99.90
56512;DHT22;42408;53.238;5.686;2023-05-10T02:50:50;12.60;99.90
56512;DHT22;42408;53.238;5.686;2023-05-10T02:53:22;12.70;99.90
56512;DHT22;42408;53.238;5.686;2023-05-10T02:55:52;12.60;99.90
56512;DHT22;42408;53.238;5.686;2023-05-10T02:58:18;12.60;99.90
56512;DHT22;42408;53.238;5.686;2023-05-10T03:00:45;12.60;99.90
56512;DHT22;42408;53.238;5.686;2023-05-10T03:03:11;12.60;99.90
56512;DHT22;42408;53.238;5.686;2023-05-10T03:05:37;12.70;99.90
56512;DHT22;42408;53.238;5.686;2023-05-10T03:08:03;12.60;99.90
56512;DHT22;42408;53.238;5.686;2023-05-10T03:10:31;12.60;99.90
56512;DHT22;42408;53.238;5.686;2023-05-10T03:13:22;12.60;99.90
56512;DHT22;42408;53.238;5.686;2023-05-10T03:16:03;12.60;99.90
56512;DHT22;42408;53.238;5.686;2023-05-10T03:21:29;12.60;99.90
56512;DHT22;42408;53.238;5.686;2023-05-10T03:24:06;12.60;99.90
56512;DHT22;42408;53.238;5.686;2023-05-10T03:26:33;12.60;99.90
56512;DHT22;42408;53.238;5.686;2023-05-10T03:28:59;12.60;99.90
56512;DHT22;42408;53.238;5.686;2023-05-10T03:31:25;12.60;99.90
56512;DHT22;42408;53.238;5.686;2023-05-10T03:33:52;12.60;99.90
56512;DHT22;42408;53.238;5.686;2023-05-10T03:36:18;12.60;99.90
56512;DHT22;42408;53.238;5.686;2023-05-10T03:38:44;12.60;99.90
56512;DHT22;42408;53.238;5.686;2023-05-10T03:41:09;12.50;99.90
56512;DHT22;42408;53.238;5.686;2023-05-10T03:43:35;12.60;99.90
56512;DHT22;42408;53.238;5.686;2023-05-10T03:46:03;12.60;99.90
56512;DHT22;42408;53.238;5.686;2023-05-10T03:48:29;12.60;99.90
56512;DHT22;42408;53.238;5.686;2023-05-10T03:50:54;12.60;99.90
56512;DHT22;42408;53.238;5.686;2023-05-10T03:53:20;12.50;99.90
56512;DHT22;42408;53.238;5.686;2023-05-10T03:55:45;12.50;99.90
56512;DHT22;42408;53.238;5.686;2023-05-10T03:58:12;12.50;99.90
56512;DHT22;42408;53.238;5.686;2023-05-10T04:00:37;12.60;99.90
56512;DHT22;42408;53.238;5.686;2023-05-10T04:03:09;12.60;99.90
56512;DHT22;42408;53.238;5.686;2023-05-10T04:05:35;12.60;99.90
56512;DHT22;42408;53.238;5.686;2023-05-10T04:08:01;12.60;99.90
56512;DHT22;42408;53.238;5.686;2023-05-10T04:10:27;12.50;99.90
56512;DHT22;42408;53.238;5.686;2023-05-10T04:12:52;12.60;99.90
56512;DHT22;42408;53.238;5.686;2023-05-10T04:15:18;12.50;99.90
56512;DHT22;42408;53.238;5.686;2023-05-10T04:17:44;12.50;99.90
56512;DHT22;42408;53.238;5.686;2023-05-10T04:20:10;12.60;99.90
56512;DHT22;42408;53.238;5.686;2023-05-10T04:22:36;12.50;99.90
56512;DHT22;42408;53.238;5.686;2023-05-10T04:25:01;12.50;99.90
56512;DHT22;42408;53.238;5.686;2023-05-10T04:27:27;12.50;99.90
56512;DHT22;42408;53.238;5.686;2023-05-10T04:29:53;12.60;99.90
56512;DHT22;42408;53.238;5.686;2023-05-10T04:32:18;12.60;99.90
56512;DHT22;42408;53.238;5.686;2023-05-10T04:34:45;12.50;99.90
56512;DHT22;42408;53.238;5.686;2023-05-10T04:37:11;12.50;99.90
56512;DHT22;42408;53.238;5.686;2023-05-10T04:39:36;12.50;99.90
56512;DHT22;42408;53.238;5.686;2023-05-10T04:42:05;12.50;99.90
56512;DHT22;42408;53.238;5.686;2023-05-10T04:44:34;12.50;99.90
56512;DHT22;42408;53.238;5.686;2023-05-10T04:47:00;12.50;99.90
56512;DHT22;42408;53.238;5.686;2023-05-10T04:49:28;12.50;99.90
56512;DHT22;42408;53.238;5.686;2023-05-10T04:51:53;12.50;99.90
56512;DHT22;42408;53.238;5.686;2023-05-10T04:54:19;12.50;99.90
56512;DHT22;42408;53.238;5.686;2023-05-10T04:56:45;12.50;99.90
56512;DHT22;42408;53.238;5.686;2023-05-10T04:59:10;12.50;99.90
56512;DHT22;42408;53.238;5.686;2023-05-10T05:01:36;12.50;99.90
56512;DHT22;42408;53.238;5.686;2023-05-10T05:04:02;12.50;99.90
56512;DHT22;42408;53.238;5.686;2023-05-10T05:06:27;12.60;99.90
56512;DHT22;42408;53.238;5.686;2023-05-10T05:08:53;12.50;99.90
56512;DHT22;42408;53.238;5.686;2023-05-10T05:11:19;12.50;99.90
56512;DHT22;42408;53.238;5.686;2023-05-10T05:13:45;12.60;99.90
56512;DHT22;42408;53.238;5.686;2023-05-10T05:16:11;12.50;99.90
56512;DHT22;42408;53.238;5.686;2023-05-10T05:18:36;12.60;99.90
56512;DHT22;42408;53.238;5.686;2023-05-10T05:21:02;12.60;99.90
56512;DHT22;42408;53.238;5.686;2023-05-10T05:23:28;12.60;99.90
56512;DHT22;42408;53.238;5.686;2023-05-10T05:25:54;12.60;99.90
56512;DHT22;42408;53.238;5.686;2023-05-10T05:28:22;12.60;99.90
56512;DHT22;42408;53.238;5.686;2023-05-10T05:30:48;12.60;99.90
56512;DHT22;42408;53.238;5.686;2023-05-10T05:33:14;12.60;99.90
56512;DHT22;42408;53.238;5.686;2023-05-10T05:35:41;12.60;99.90
56512;DHT22;42408;53.238;5.686;2023-05-10T05:38:08;12.70;99.90
56512;DHT22;42408;53.238;5.686;2023-05-10T05:40:34;12.70;99.90
56512;DHT22;42408;53.238;5.686;2023-05-10T05:42:59;12.70;99.90
56512;DHT22;42408;53.238;5.686;2023-05-10T05:45:25;12.70;99.90
56512;DHT22;42408;53.238;5.686;2023-05-10T05:47:50;12.70;99.90
56512;DHT22;42408;53.238;5.686;2023-05-10T05:50:16;12.70;99.90
56512;DHT22;42408;53.238;5.686;2023-05-10T05:52:42;12.70;99.90
56512;DHT22;42408;53.238;5.686;2023-05-10T05:55:08;12.70;99.90
56512;DHT22;42408;53.238;5.686;2023-05-10T05:57:34;12.70;99.90
56512;DHT22;42408;53.238;5.686;2023-05-10T05:59:59;12.80;99.90
56512;DHT22;42408;53.238;5.686;2023-05-10T06:02:25;12.80;99.90
56512;DHT22;42408;53.238;5.686;2023-05-10T06:04:51;12.80;99.90
56512;DHT22;42408;53.238;5.686;2023-05-10T06:07:16;12.80;99.90
56512;DHT22;42408;53.238;5.686;2023-05-10T06:09:42;12.80;99.90
56512;DHT22;42408;53.238;5.686;2023-05-10T06:12:07;12.90;99.90
56512;DHT22;42408;53.238;5.686;2023-05-10T06:14:33;12.90;99.90
56512;DHT22;42408;53.238;5.686;2023-05-10T06:16:59;12.90;99.90
56512;DHT22;42408;53.238;5.686;2023-05-10T06:19:25;13.00;99.90
56512;DHT22;42408;53.238;5.686;2023-05-10T06:21:52;13.30;99.90
56512;DHT22;42408;53.238;5.686;2023-05-10T06:24:17;12.90;99.90
56512;DHT22;42408;53.238;5.686;2023-05-10T06:26:43;13.00;99.90
56512;DHT22;42408;53.238;5.686;2023-05-10T06:29:08;13.00;99.90
56512;DHT22;42408;53.238;5.686;2023-05-10T06:31:34;13.00;99.90
56512;DHT22;42408;53.238;5.686;2023-05-10T06:34:00;13.10;99.90
56512;DHT22;42408;53.238;5.686;2023-05-10T06:36:25;13.10;99.90
56512;DHT22;42408;53.238;5.686;2023-05-10T06:38:52;13.10;99.90
56512;DHT22;42408;53.238;5.686;2023-05-10T06:41:18;13.10;99.90
56512;DHT22;42408;53.238;5.686;2023-05-10T06:43:43;13.20;99.90
56512;DHT22;42408;53.238;5.686;2023-05-10T06:46:09;13.20;99.90
56512;DHT22;42408;53.238;5.686;2023-05-10T06:48:35;13.20;99.90
56512;DHT22;42408;53.238;5.686;2023-05-10T06:51:00;13.30;99.90
56512;DHT22;42408;53.238;5.686;2023-05-10T06:53:26;13.30;99.90
56512;DHT22;42408;53.238;5.686;2023-05-10T06:55:51;13.30;99.90
56512;DHT22;42408;53.238;5.686;2023-05-10T06:58:17;13.30;99.90
56512;DHT22;42408;53.238;5.686;2023-05-10T07:00:43;13.30;99.90
56512;DHT22;42408;53.238;5.686;2023-05-10T07:03:10;13.40;99.90
56512;DHT22;42408;53.238;5.686;2023-05-10T07:05:36;13.30;99.90
56512;DHT22;42408;53.238;5.686;2023-05-10T07:08:02;13.40;99.90
56512;DHT22;42408;53.238;5.686;2023-05-10T07:10:27;13.40;99.90
56512;DHT22;42408;53.238;5.686;2023-05-10T07:12:53;13.50;99.90
56512;DHT22;42408;53.238;5.686;2023-05-10T07:15:19;13.50;99.90
56512;DHT22;42408;53.238;5.686;2023-05-10T07:17:45;13.50;99.90
56512;DHT22;42408;53.238;5.686;2023-05-10T07:20:11;13.50;99.90
56512;DHT22;42408;53.238;5.686;2023-05-10T07:22:36;13.60;99.90
56512;DHT22;42408;53.238;5.686;2023-05-10T07:25:02;13.60;99.90
56512;DHT22;42408;53.238;5.686;2023-05-10T07:27:28;13.50;99.90
56512;DHT22;42408;53.238;5.686;2023-05-10T07:29:53;13.60;99.90
56512;DHT22;42408;53.238;5.686;2023-05-10T07:32:20;13.60;99.90
56512;DHT22;42408;53.238;5.686;2023-05-10T07:34:46;13.60;99.90
56512;DHT22;42408;53.238;5.686;2023-05-10T07:37:12;13.60;99.90
56512;DHT22;42408;53.238;5.686;2023-05-10T07:39:37;13.70;99.90
56512;DHT22;42408;53.238;5.686;2023-05-10T07:42:03;13.70;99.90
56512;DHT22;42408;53.238;5.686;2023-05-10T07:44:29;13.80;99.90
56512;DHT22;42408;53.238;5.686;2023-05-10T07:46:55;13.80;99.90
56512;DHT22;42408;53.238;5.686;2023-05-10T07:49:21;13.80;99.90
56512;DHT22;42408;53.238;5.686;2023-05-10T07:51:49;13.90;99.90
56512;DHT22;42408;53.238;5.686;2023-05-10T07:54:15;13.90;99.90
56512;DHT22;42408;53.238;5.686;2023-05-10T07:56:41;13.90;99.90
56512;DHT22;42408;53.238;5.686;2023-05-10T07:59:15;14.10;99.90
56512;DHT22;42408;53.238;5.686;2023-05-10T08:01:42;14.00;99.90
56512;DHT22;42408;53.238;5.686;2023-05-10T08:04:07;14.00;99.90
56512;DHT22;42408;53.238;5.686;2023-05-10T08:06:34;14.00;99.90
56512;DHT22;42408;53.238;5.686;2023-05-10T08:09:00;14.00;99.90
56512;DHT22;42408;53.238;5.686;2023-05-10T08:11:26;14.00;99.90
56512;DHT22;42408;53.238;5.686;2023-05-10T08:13:53;14.00;99.90
56512;DHT22;42408;53.238;5.686;2023-05-10T08:16:19;14.10;99.90
56512;DHT22;42408;53.238;5.686;2023-05-10T08:18:45;14.00;99.90
56512;DHT22;42408;53.238;5.686;2023-05-10T08:21:13;14.00;99.90
56512;DHT22;42408;53.238;5.686;2023-05-10T08:23:39;14.00;99.90
56512;DHT22;42408;53.238;5.686;2023-05-10T08:26:05;14.00;99.90
56512;DHT22;42408;53.238;5.686;2023-05-10T08:28:31;14.00;99.90
56512;DHT22;42408;53.238;5.686;2023-05-10T08:30:56;14.00;99.90
56512;DHT22;42408;53.238;5.686;2023-05-10T08:33:22;14.10;99.90
56512;DHT22;42408;53.238;5.686;2023-05-10T08:35:48;14.10;99.90
56512;DHT22;42408;53.238;5.686;2023-05-10T08:38:13;14.10;99.90
56512;DHT22;42408;53.238;5.686;2023-05-10T08:40:43;14.10;99.90
56512;DHT22;42408;53.238;5.686;2023-05-10T08:43:11;14.20;99.90
56512;DHT22;42408;53.238;5.686;2023-05-10T08:45:39;14.40;99.90
56512;DHT22;42408;53.238;5.686;2023-05-10T08:48:06;14.40;99.90
56512;DHT22;42408;53.238;5.686;2023-05-10T08:50:37;14.50;99.90
56512;DHT22;42408;53.238;5.686;2023-05-10T08:53:06;14.60;99.90
56512;DHT22;42408;53.238;5.686;2023-05-10T08:55:32;14.60;99.90
56512;DHT22;42408;53.238;5.686;2023-05-10T08:57:59;14.70;99.90
56512;DHT22;42408;53.238;5.686;2023-05-10T09:00:25;14.70;99.90
56512;DHT22;42408;53.238;5.686;2023-05-10T09:02:51;14.80;99.90
56512;DHT22;42408;53.238;5.686;2023-05-10T09:05:17;14.80;99.90
56512;DHT22;42408;53.238;5.686;2023-05-10T09:07:43;14.90;99.90
56512;DHT22;42408;53.238;5.686;2023-05-10T09:10:11;14.90;99.90
56512;DHT22;42408;53.238;5.686;2023-05-10T09:12:37;14.90;99.90
56512;DHT22;42408;53.238;5.686;2023-05-10T09:15:04;14.90;99.90
56512;DHT22;42408;53.238;5.686;2023-05-10T09:17:31;14.90;99.90
56512;DHT22;42408;53.238;5.686;2023-05-10T09:19:58;14.90;99.90
56512;DHT22;42408;53.238;5.686;2023-05-10T09:22:24;14.90;99.90
56512;DHT22;42408;53.238;5.686;2023-05-10T09:25:06;14.90;99.90
56512;DHT22;42408;53.238;5.686;2023-05-10T09:27:33;14.90;99.90
56512;DHT22;42408;53.238;5.686;2023-05-10T09:29:58;14.90;99.90
56512;DHT22;42408;53.238;5.686;2023-05-10T09:32:44;14.90;99.90
56512;DHT22;42408;53.238;5.686;2023-05-10T09:35:12;14.90;99.90
56512;DHT22;42408;53.238;5.686;2023-05-10T09:37:43;14.80;99.90
56512;DHT22;42408;53.238;5.686;2023-05-10T09:40:16;14.80;99.90
56512;DHT22;42408;53.238;5.686;2023-05-10T09:45:16;14.90;99.90
56512;DHT22;42408;53.238;5.686;2023-05-10T09:47:42;14.90;99.90
56512;DHT22;42408;53.238;5.686;2023-05-10T09:50:08;14.90;99.90
56512;DHT22;42408;53.238;5.686;2023-05-10T09:55:20;15.00;99.90
56512;DHT22;42408;53.238;5.686;2023-05-10T09:57:47;15.00;99.90
56512;DHT22;42408;53.238;5.686;2023-05-10T10:00:17;15.00;99.90
56512;DHT22;42408;53.238;5.686;2023-05-10T10:02:45;15.10;99.90
56512;DHT22;42408;53.238;5.686;2023-05-10T10:05:11;15.10;99.90
56512;DHT22;42408;53.238;5.686;2023-05-10T10:07:37;15.10;99.90
56512;DHT22;42408;53.238;5.686;2023-05-10T10:10:03;15.10;99.90
56512;DHT22;42408;53.238;5.686;2023-05-10T10:12:30;15.10;99.90
56512;DHT22;42408;53.238;5.686;2023-05-10T10:14:57;15.20;99.90
56512;DHT22;42408;53.238;5.686;2023-05-10T10:17:27;15.20;99.90
56512;DHT22;42408;53.238;5.686;2023-05-10T10:19:54;15.30;99.90
56512;DHT22;42408;53.238;5.686;2023-05-10T10:22:20;15.40;99.90
56512;DHT22;42408;53.238;5.686;2023-05-10T10:24:46;15.50;99.90
56512;DHT22;42408;53.238;5.686;2023-05-10T10:30:07;15.70;99.90
56512;DHT22;42408;53.238;5.686;2023-05-10T10:35:38;15.80;99.90
56512;DHT22;42408;53.238;5.686;2023-05-10T10:38:08;15.90;99.90
56512;DHT22;42408;53.238;5.686;2023-05-10T10:40:34;16.10;99.90
56512;DHT22;42408;53.238;5.686;2023-05-10T10:43:21;16.30;99.90
56512;DHT22;42408;53.238;5.686;2023-05-10T10:46:13;16.40;99.90
56512;DHT22;42408;53.238;5.686;2023-05-10T10:48:49;16.50;99.90
56512;DHT22;42408;53.238;5.686;2023-05-10T10:51:16;16.60;99.90
56512;DHT22;42408;53.238;5.686;2023-05-10T10:53:43;16.70;99.90
56512;DHT22;42408;53.238;5.686;2023-05-10T10:56:12;16.70;99.90
56512;DHT22;42408;53.238;5.686;2023-05-10T10:58:41;16.80;99.90
56512;DHT22;42408;53.238;5.686;2023-05-10T11:03:39;16.90;99.90
56512;DHT22;42408;53.238;5.686;2023-05-10T11:06:05;16.90;99.90
56512;DHT22;42408;53.238;5.686;2023-05-10T11:08:33;17.00;99.90
56512;DHT22;42408;53.238;5.686;2023-05-10T11:15:58;17.30;99.90
56512;DHT22;42408;53.238;5.686;2023-05-10T11:18:29;17.30;99.90
56512;DHT22;42408;53.238;5.686;2023-05-10T11:20:59;17.40;99.90
56512;DHT22;42408;53.238;5.686;2023-05-10T11:26:13;17.30;99.90
56512;DHT22;42408;53.238;5.686;2023-05-10T11:28:46;17.40;99.90
56512;DHT22;42408;53.238;5.686;2023-05-10T11:31:19;17.40;99.90
56512;DHT22;42408;53.238;5.686;2023-05-10T11:33:53;17.60;99.90
56512;DHT22;42408;53.238;5.686;2023-05-10T11:36:39;17.60;99.90
56512;DHT22;42408;53.238;5.686;2023-05-10T11:39:05;17.60;99.90
56512;DHT22;42408;53.238;5.686;2023-05-10T11:41:31;17.70;99.90
56512;DHT22;42408;53.238;5.686;2023-05-10T11:43:58;17.90;99.90
56512;DHT22;42408;53.238;5.686;2023-05-10T11:46:25;18.00;99.90
56512;DHT22;42408;53.238;5.686;2023-05-10T11:48:58;18.10;99.90
56512;DHT22;42408;53.238;5.686;2023-05-10T11:51:26;18.10;99.90
56512;DHT22;42408;53.238;5.686;2023-05-10T11:53:53;18.20;99.90
56512;DHT22;42408;53.238;5.686;2023-05-10T11:56:19;18.20;99.90
56512;DHT22;42408;53.238;5.686;2023-05-10T11:58:53;18.20;99.90
56512;DHT22;42408;53.238;5.686;2023-05-10T12:01:21;18.30;99.90
56512;DHT22;42408;53.238;5.686;2023-05-10T12:03:47;18.30;99.90
56512;DHT22;42408;53.238;5.686;2023-05-10T12:06:13;18.40;99.90
56512;DHT22;42408;53.238;5.686;2023-05-10T12:08:44;18.60;99.90
56512;DHT22;42408;53.238;5.686;2023-05-10T12:11:12;18.70;99.90
56512;DHT22;42408;53.238;5.686;2023-05-10T12:13:39;18.80;99.90
56512;DHT22;42408;53.238;5.686;2023-05-10T12:18:41;18.80;99.90
56512;DHT22;42408;53.238;5.686;2023-05-10T12:21:09;18.70;99.90
56512;DHT22;42408;53.238;5.686;2023-05-10T12:23:35;18.70;99.90
56512;DHT22;42408;53.238;5.686;2023-05-10T12:26:05;18.70;99.90
56512;DHT22;42408;53.238;5.686;2023-05-10T12:28:32;18.80;99.90
56512;DHT22;42408;53.238;5.686;2023-05-10T12:30:59;19.00;99.90
56512;DHT22;42408;53.238;5.686;2023-05-10T12:33:25;19.10;99.90
56512;DHT22;42408;53.238;5.686;2023-05-10T12:35:52;19.30;99.90
56512;DHT22;42408;53.238;5.686;2023-05-10T12:38:29;19.50;99.90
56512;DHT22;42408;53.238;5.686;2023-05-10T12:40:57;19.70;99.90
56512;DHT22;42408;53.238;5.686;2023-05-10T12:43:23;20.00;99.90
56512;DHT22;42408;53.238;5.686;2023-05-10T12:45:49;20.10;99.90
56512;DHT22;42408;53.238;5.686;2023-05-10T12:48:15;20.20;99.90
56512;DHT22;42408;53.238;5.686;2023-05-10T12:50:41;20.10;99.90
56512;DHT22;42408;53.238;5.686;2023-05-10T12:53:06;20.20;99.90
56512;DHT22;42408;53.238;5.686;2023-05-10T12:55:32;20.10;99.90
56512;DHT22;42408;53.238;5.686;2023-05-10T12:57:58;20.00;99.90
56512;DHT22;42408;53.238;5.686;2023-05-10T13:00:23;19.90;99.90
56512;DHT22;42408;53.238;5.686;2023-05-10T13:02:49;19.90;99.90
56512;DHT22;42408;53.238;5.686;2023-05-10T13:05:15;19.80;99.90
56512;DHT22;42408;53.238;5.686;2023-05-10T13:07:40;19.80;99.90
56512;DHT22;42408;53.238;5.686;2023-05-10T13:10:06;19.90;99.90
56512;DHT22;42408;53.238;5.686;2023-05-10T13:12:32;20.10;99.90
56512;DHT22;42408;53.238;5.686;2023-05-10T13:14:58;20.00;99.90
56512;DHT22;42408;53.238;5.686;2023-05-10T13:17:25;20.00;99.90
56512;DHT22;42408;53.238;5.686;2023-05-10T13:19:51;20.20;99.90
56512;DHT22;42408;53.238;5.686;2023-05-10T13:22:16;20.20;99.90
56512;DHT22;42408;53.238;5.686;2023-05-10T13:24:43;20.20;99.90
56512;DHT22;42408;53.238;5.686;2023-05-10T13:27:08;20.20;99.90
56512;DHT22;42408;53.238;5.686;2023-05-10T13:29:34;20.20;99.90
56512;DHT22;42408;53.238;5.686;2023-05-10T13:32:00;20.30;99.90
56512;DHT22;42408;53.238;5.686;2023-05-10T13:34:26;20.20;99.90
56512;DHT22;42408;53.238;5.686;2023-05-10T13:36:52;20.30;99.90
56512;DHT22;42408;53.238;5.686;2023-05-10T13:39:20;20.40;99.90
56512;DHT22;42408;53.238;5.686;2023-05-10T13:41:46;20.40;99.90
56512;DHT22;42408;53.238;5.686;2023-05-10T13:44:15;20.30;99.90
56512;DHT22;42408;53.238;5.686;2023-05-10T13:46:41;20.20;99.90
56512;DHT22;42408;53.238;5.686;2023-05-10T13:49:10;20.20;99.90
56512;DHT22;42408;53.238;5.686;2023-05-10T13:51:36;20.10;99.90
56512;DHT22;42408;53.238;5.686;2023-05-10T13:54:02;20.20;99.90
56512;DHT22;42408;53.238;5.686;2023-05-10T13:56:28;20.20;99.90
56512;DHT22;42408;53.238;5.686;2023-05-10T13:58:55;20.10;99.90
56512;DHT22;42408;53.238;5.686;2023-05-10T14:01:22;19.90;99.90
56512;DHT22;42408;53.238;5.686;2023-05-10T14:03:47;19.70;99.90
56512;DHT22;42408;53.238;5.686;2023-05-10T14:06:13;19.60;99.90
56512;DHT22;42408;53.238;5.686;2023-05-10T14:08:39;19.60;99.90
56512;DHT22;42408;53.238;5.686;2023-05-10T14:11:05;19.60;99.90
56512;DHT22;42408;53.238;5.686;2023-05-10T14:13:31;19.50;99.90
56512;DHT22;42408;53.238;5.686;2023-05-10T14:15:56;19.40;99.90
56512;DHT22;42408;53.238;5.686;2023-05-10T14:18:24;19.30;99.90
56512;DHT22;42408;53.238;5.686;2023-05-10T14:20:49;19.20;99.90
56512;DHT22;42408;53.238;5.686;2023-05-10T14:23:15;19.10;99.90
56512;DHT22;42408;53.238;5.686;2023-05-10T14:25:41;19.00;99.90
56512;DHT22;42408;53.238;5.686;2023-05-10T14:28:07;18.80;99.90
56512;DHT22;42408;53.238;5.686;2023-05-10T14:30:32;18.70;99.90
56512;DHT22;42408;53.238;5.686;2023-05-10T14:33:00;18.50;99.90
56512;DHT22;42408;53.238;5.686;2023-05-10T14:35:27;18.40;99.90
56512;DHT22;42408;53.238;5.686;2023-05-10T14:37:53;18.30;99.90
56512;DHT22;42408;53.238;5.686;2023-05-10T14:40:18;18.20;99.90
56512;DHT22;42408;53.238;5.686;2023-05-10T14:42:44;18.10;99.90
56512;DHT22;42408;53.238;5.686;2023-05-10T14:45:10;18.00;99.90
56512;DHT22;42408;53.238;5.686;2023-05-10T14:47:36;17.80;99.90
56512;DHT22;42408;53.238;5.686;2023-05-10T14:50:02;17.80;99.90
56512;DHT22;42408;53.238;5.686;2023-05-10T14:52:28;17.70;99.90
56512;DHT22;42408;53.238;5.686;2023-05-10T14:54:54;17.60;99.90
56512;DHT22;42408;53.238;5.686;2023-05-10T14:57:19;17.60;99.90
56512;DHT22;42408;53.238;5.686;2023-05-10T14:59:45;17.60;99.90
56512;DHT22;42408;53.238;5.686;2023-05-10T15:02:11;17.60;99.90
56512;DHT22;42408;53.238;5.686;2023-05-10T15:04:37;17.60;99.90
56512;DHT22;42408;53.238;5.686;2023-05-10T15:07:03;17.60;99.90
56512;DHT22;42408;53.238;5.686;2023-05-10T15:09:28;17.50;99.90
56512;DHT22;42408;53.238;5.686;2023-05-10T15:11:54;17.50;99.90
56512;DHT22;42408;53.238;5.686;2023-05-10T15:14:21;17.40;99.90
56512;DHT22;42408;53.238;5.686;2023-05-10T15:16:47;17.40;99.90
56512;DHT22;42408;53.238;5.686;2023-05-10T15:19:12;17.30;99.90
56512;DHT22;42408;53.238;5.686;2023-05-10T15:21:38;17.30;99.90
56512;DHT22;42408;53.238;5.686;2023-05-10T15:24:05;17.20;99.90
56512;DHT22;42408;53.238;5.686;2023-05-10T15:26:30;17.20;99.90
56512;DHT22;42408;53.238;5.686;2023-05-10T15:28:56;17.00;99.90
56512;DHT22;42408;53.238;5.686;2023-05-10T15:31:22;17.00;99.90
56512;DHT22;42408;53.238;5.686;2023-05-10T15:33:48;17.00;99.90
56512;DHT22;42408;53.238;5.686;2023-05-10T15:36:13;16.90;99.90
56512;DHT22;42408;53.238;5.686;2023-05-10T15:38:39;16.90;99.90
56512;DHT22;42408;53.238;5.686;2023-05-10T15:41:05;17.00;99.90
56512;DHT22;42408;53.238;5.686;2023-05-10T15:43:31;16.90;99.90
56512;DHT22;42408;53.238;5.686;2023-05-10T15:45:56;16.90;99.90
56512;DHT22;42408;53.238;5.686;2023-05-10T15:48:22;16.80;99.90
56512;DHT22;42408;53.238;5.686;2023-05-10T15:50:48;16.80;99.90
56512;DHT22;42408;53.238;5.686;2023-05-10T15:53:13;16.80;99.90
56512;DHT22;42408;53.238;5.686;2023-05-10T15:55:39;16.80;99.90
56512;DHT22;42408;53.238;5.686;2023-05-10T15:58:05;16.80;99.90
56512;DHT22;42408;53.238;5.686;2023-05-10T16:00:31;16.70;99.90
56512;DHT22;42408;53.238;5.686;2023-05-10T16:02:56;16.70;99.90
56512;DHT22;42408;53.238;5.686;2023-05-10T16:05:22;16.60;99.90
56512;DHT22;42408;53.238;5.686;2023-05-10T16:07:48;16.60;99.90
56512;DHT22;42408;53.238;5.686;2023-05-10T16:10:14;16.50;99.90